sensor_id;sensor_type;location;lat;lon;timestamp;temperature;humidity
18406;DHT22;9329;48.720;9.588;2022-11-15T00:01:29;12.30;99.90
18406;DHT22;9329;48.720;9.588;2022-11-15T00:04:14;12.50;99.90
18406;DHT22;9329;48.720;9.588;2022-11-15T00:07:00;12.50;99.90
18406;DHT22;9329;48.720;9.588;2022-11-15T00:09:45;12.40;99.90
18406;DHT22;9329;48.720;9.588;2022-11-15T00:12:31;12.40;99.90
18406;DHT22;9329;48.720;9.588;2022-11-15T00:15:16;12.20;99.90
18406;DHT22;9329;48.720;9.588;2022-11-15T00:18:04;12.00;99.90
18406;DHT22;9329;48.720;9.588;2022-11-15T00:20:50;12.30;99.90
18406;DHT22;9329;48.720;9.588;2022-11-15T00:23:36;12.30;99.90
18406;DHT22;9329;48.720;9.588;2022-11-15T00:26:21;12.50;99.90
18406;DHT22;9329;48.720;9.588;2022-11-15T00:29:07;12.50;99.90
18406;DHT22;9329;48.720;9.588;2022-11-15T00:31:52;12.50;99.90
18406;DHT22;9329;48.720;9.588;2022-11-15T00:34:39;12.00;99.90
18406;DHT22;9329;48.720;9.588;2022-11-15T00:37:24;11.50;99.90
18406;DHT22;9329;48.720;9.588;2022-11-15T00:40:11;11.80;99.90
18406;DHT22;9329;48.720;9.588;2022-11-15T00:42:58;11.50;99.90
18406;DHT22;9329;48.720;9.588;2022-11-15T00:45:43;12.00;99.90
18406;DHT22;9329;48.720;9.588;2022-11-15T00:48:29;12.00;99.90
18406;DHT22;9329;48.720;9.588;2022-11-15T00:51:16;12.00;99.90
18406;DHT22;9329;48.720;9.588;2022-11-15T00:54:02;12.10;99.90
18406;DHT22;9329;48.720;9.588;2022-11-15T00:56:47;11.80;99.90
18406;DHT22;9329;48.720;9.588;2022-11-15T00:59:33;11.70;99.90
18406;DHT22;9329;48.720;9.588;2022-11-15T01:02:19;11.80;99.90
18406;DHT22;9329;48.720;9.588;2022-11-15T01:05:05;12.00;99.90
18406;DHT22;9329;48.720;9.588;2022-11-15T01:07:53;11.90;99.90
18406;DHT22;9329;48.720;9.588;2022-11-15T01:10:39;11.90;99.90
18406;DHT22;9329;48.720;9.588;2022-11-15T01:13:24;11.60;99.90
18406;DHT22;9329;48.720;9.588;2022-11-15T01:16:13;11.00;99.90
18406;DHT22;9329;48.720;9.588;2022-11-15T01:18:59;11.20;99.90
18406;DHT22;9329;48.720;9.588;2022-11-15T01:21:44;11.20;99.90
18406;DHT22;9329;48.720;9.588;2022-11-15T01:24:31;11.40;99.90
18406;DHT22;9329;48.720;9.588;2022-11-15T01:27:17;11.30;99.90
18406;DHT22;9329;48.720;9.588;2022-11-15T01:30:03;11.20;99.90
18406;DHT22;9329;48.720;9.588;2022-11-15T01:32:48;11.20;99.90
18406;DHT22;9329;48.720;9.588;2022-11-15T01:35:38;11.20;99.90
18406;DHT22;9329;48.720;9.588;2022-11-15T01:38:24;11.00;99.90
18406;DHT22;9329;48.720;9.588;2022-11-15T01:41:16;10.90;99.90
18406;DHT22;9329;48.720;9.588;2022-11-15T01:47:24;10.90;99.90
18406;DHT22;9329;48.720;9.588;2022-11-15T01:50:13;10.80;99.90
18406;DHT22;9329;48.720;9.588;2022-11-15T01:52:59;10.60;99.90
18406;DHT22;9329;48.720;9.588;2022-11-15T01:55:44;10.70;99.90
18406;DHT22;9329;48.720;9.588;2022-11-15T01:58:31;10.70;99.90
18406;DHT22;9329;48.720;9.588;2022-11-15T02:01:17;10.60;99.90
18406;DHT22;9329;48.720;9.588;2022-11-15T02:04:07;10.70;99.90
18406;DHT22;9329;48.720;9.588;2022-11-15T02:06:55;10.60;99.90
18406;DHT22;9329;48.720;9.588;2022-11-15T02:09:40;10.40;99.90
18406;DHT22;9329;48.720;9.588;2022-11-15T02:12:26;10.30;99.90
18406;DHT22;9329;48.720;9.588;2022-11-15T02:15:13;10.10;99.90
18406;DHT22;9329;48.720;9.588;2022-11-15T02:18:07;10.40;99.90
18406;DHT22;9329;48.720;9.588;2022-11-15T02:21:05;10.30;99.90
18406;DHT22;9329;48.720;9.588;2022-11-15T02:27:42;10.60;99.90
18406;DHT22;9329;48.720;9.588;2022-11-15T02:30:40;10.20;99.90
18406;DHT22;9329;48.720;9.588;2022-11-15T02:33:34;10.40;99.90
18406;DHT22;9329;48.720;9.588;2022-11-15T02:36:30;10.20;99.90
18406;DHT22;9329;48.720;9.588;2022-11-15T02:39:23;10.10;99.90
18406;DHT22;9329;48.720;9.588;2022-11-15T02:42:16;9.90;99.90
18406;DHT22;9329;48.720;9.588;2022-11-15T02:45:24;9.80;99.90
18406;DHT22;9329;48.720;9.588;2022-11-15T02:48:14;9.80;99.90
18406;DHT22;9329;48.720;9.588;2022-11-15T02:51:00;9.60;99.90
18406;DHT22;9329;48.720;9.588;2022-11-15T02:53:46;9.90;99.90
18406;DHT22;9329;48.720;9.588;2022-11-15T02:56:32;9.60;99.90
18406;DHT22;9329;48.720;9.588;2022-11-15T02:59:34;9.50;99.90
18406;DHT22;9329;48.720;9.588;2022-11-15T03:02:36;9.70;99.90
18406;DHT22;9329;48.720;9.588;2022-11-15T03:05:34;9.30;99.90
18406;DHT22;9329;48.720;9.588;2022-11-15T03:08:26;9.50;99.90
18406;DHT22;9329;48.720;9.588;2022-11-15T03:11:15;9.50;99.90
18406;DHT22;9329;48.720;9.588;2022-11-15T03:14:08;9.80;99.90
18406;DHT22;9329;48.720;9.588;2022-11-15T03:17:00;9.90;99.90
18406;DHT22;9329;48.720;9.588;2022-11-15T03:19:51;9.90;99.90
18406;DHT22;9329;48.720;9.588;2022-11-15T03:22:43;10.20;99.90
18406;DHT22;9329;48.720;9.588;2022-11-15T03:25:31;10.10;99.90
18406;DHT22;9329;48.720;9.588;2022-11-15T03:28:22;9.20;99.90
18406;DHT22;9329;48.720;9.588;2022-11-15T03:31:09;9.00;99.90
18406;DHT22;9329;48.720;9.588;2022-11-15T03:34:19;9.80;99.90
18406;DHT22;9329;48.720;9.588;2022-11-15T03:37:07;10.10;99.90
18406;DHT22;9329;48.720;9.588;2022-11-15T03:39:54;9.50;99.90
18406;DHT22;9329;48.720;9.588;2022-11-15T03:42:45;9.20;99.90
18406;DHT22;9329;48.720;9.588;2022-11-15T03:45:35;9.70;99.90
18406;DHT22;9329;48.720;9.588;2022-11-15T03:48:25;10.10;99.90
18406;DHT22;9329;48.720;9.588;2022-11-15T03:51:13;10.00;99.90
18406;DHT22;9329;48.720;9.588;2022-11-15T03:53:59;10.10;99.90
18406;DHT22;9329;48.720;9.588;2022-11-15T03:56:48;10.30;99.90
18406;DHT22;9329;48.720;9.588;2022-11-15T03:59:34;10.10;99.90
18406;DHT22;9329;48.720;9.588;2022-11-15T04:02:20;10.30;99.90
18406;DHT22;9329;48.720;9.588;2022-11-15T04:05:06;10.00;99.90
18406;DHT22;9329;48.720;9.588;2022-11-15T04:07:51;9.90;99.90
18406;DHT22;9329;48.720;9.588;2022-11-15T04:10:37;10.30;99.90
18406;DHT22;9329;48.720;9.588;2022-11-15T04:13:24;10.30;99.90
18406;DHT22;9329;48.720;9.588;2022-11-15T04:16:09;10.10;99.90
18406;DHT22;9329;48.720;9.588;2022-11-15T04:18:55;10.30;99.90
18406;DHT22;9329;48.720;9.588;2022-11-15T04:21:54;10.20;99.90
18406;DHT22;9329;48.720;9.588;2022-11-15T04:24:57;10.40;99.90
18406;DHT22;9329;48.720;9.588;2022-11-15T04:27:43;10.40;99.90
18406;DHT22;9329;48.720;9.588;2022-11-15T04:30:30;10.60;99.90
18406;DHT22;9329;48.720;9.588;2022-11-15T04:33:16;10.50;99.90
18406;DHT22;9329;48.720;9.588;2022-11-15T04:36:01;10.40;99.90
18406;DHT22;9329;48.720;9.588;2022-11-15T04:39:05;10.60;99.90
18406;DHT22;9329;48.720;9.588;2022-11-15T04:41:50;10.80;99.90
18406;DHT22;9329;48.720;9.588;2022-11-15T04:44:36;11.00;99.90
18406;DHT22;9329;48.720;9.588;2022-11-15T04:47:23;10.80;99.90
18406;DHT22;9329;48.720;9.588;2022-11-15T04:50:09;11.00;99.90
18406;DHT22;9329;48.720;9.588;2022-11-15T04:52:56;10.60;99.90
18406;DHT22;9329;48.720;9.588;2022-11-15T04:55:44;11.00;99.90
18406;DHT22;9329;48.720;9.588;2022-11-15T04:58:29;11.00;99.90
18406;DHT22;9329;48.720;9.588;2022-11-15T05:01:15;10.50;99.90
18406;DHT22;9329;48.720;9.588;2022-11-15T05:04:03;10.80;99.90
18406;DHT22;9329;48.720;9.588;2022-11-15T05:07:07;10.90;99.90
18406;DHT22;9329;48.720;9.588;2022-11-15T05:09:52;10.70;99.90
18406;DHT22;9329;48.720;9.588;2022-11-15T05:12:38;10.80;99.90
18406;DHT22;9329;48.720;9.588;2022-11-15T05:15:24;10.70;99.90
18406;DHT22;9329;48.720;9.588;2022-11-15T05:18:09;10.40;99.90
18406;DHT22;9329;48.720;9.588;2022-11-15T05:20:56;10.40;99.90
18406;DHT22;9329;48.720;9.588;2022-11-15T05:23:47;10.70;99.90
18406;DHT22;9329;48.720;9.588;2022-11-15T05:26:33;10.90;99.90
18406;DHT22;9329;48.720;9.588;2022-11-15T05:29:18;10.90;99.90
18406;DHT22;9329;48.720;9.588;2022-11-15T05:32:06;11.10;99.90
18406;DHT22;9329;48.720;9.588;2022-11-15T05:34:51;11.30;99.90
18406;DHT22;9329;48.720;9.588;2022-11-15T05:37:38;11.30;99.90
18406;DHT22;9329;48.720;9.588;2022-11-15T05:40:24;11.10;99.90
18406;DHT22;9329;48.720;9.588;2022-11-15T05:43:10;11.10;99.90
18406;DHT22;9329;48.720;9.588;2022-11-15T05:45:56;11.30;99.90
18406;DHT22;9329;48.720;9.588;2022-11-15T05:48:45;11.00;99.90
18406;DHT22;9329;48.720;9.588;2022-11-15T05:51:32;10.90;99.90
18406;DHT22;9329;48.720;9.588;2022-11-15T05:54:20;10.90;99.90
18406;DHT22;9329;48.720;9.588;2022-11-15T05:57:06;10.90;99.90
18406;DHT22;9329;48.720;9.588;2022-11-15T05:59:54;11.00;99.90
18406;DHT22;9329;48.720;9.588;2022-11-15T06:02:39;10.90;99.90
18406;DHT22;9329;48.720;9.588;2022-11-15T06:05:25;10.90;99.90
18406;DHT22;9329;48.720;9.588;2022-11-15T06:08:10;10.90;99.90
18406;DHT22;9329;48.720;9.588;2022-11-15T06:11:03;10.90;99.90
18406;DHT22;9329;48.720;9.588;2022-11-15T06:13:49;10.50;99.90
18406;DHT22;9329;48.720;9.588;2022-11-15T06:16:34;10.40;99.90
18406;DHT22;9329;48.720;9.588;2022-11-15T06:19:20;10.10;99.90
18406;DHT22;9329;48.720;9.588;2022-11-15T06:22:06;10.20;99.90
18406;DHT22;9329;48.720;9.588;2022-11-15T06:24:51;10.10;99.90
18406;DHT22;9329;48.720;9.588;2022-11-15T06:27:38;10.40;99.90
18406;DHT22;9329;48.720;9.588;2022-11-15T06:30:25;10.20;99.90
18406;DHT22;9329;48.720;9.588;2022-11-15T06:33:11;10.20;99.90
18406;DHT22;9329;48.720;9.588;2022-11-15T06:36:00;10.20;99.90
18406;DHT22;9329;48.720;9.588;2022-11-15T06:38:46;10.30;99.90
18406;DHT22;9329;48.720;9.588;2022-11-15T06:41:34;10.40;99.90
18406;DHT22;9329;48.720;9.588;2022-11-15T06:44:20;10.40;99.90
18406;DHT22;9329;48.720;9.588;2022-11-15T06:47:05;10.50;99.90
18406;DHT22;9329;48.720;9.588;2022-11-15T06:49:51;10.30;99.90
18406;DHT22;9329;48.720;9.588;2022-11-15T06:52:36;10.30;99.90
18406;DHT22;9329;48.720;9.588;2022-11-15T06:55:22;10.20;99.90
18406;DHT22;9329;48.720;9.588;2022-11-15T06:58:07;10.10;99.90
18406;DHT22;9329;48.720;9.588;2022-11-15T07:00:58;10.00;99.90
18406;DHT22;9329;48.720;9.588;2022-11-15T07:03:44;10.20;99.90
18406;DHT22;9329;48.720;9.588;2022-11-15T07:06:30;10.50;99.90
18406;DHT22;9329;48.720;9.588;2022-11-15T07:09:15;10.70;99.90
18406;DHT22;9329;48.720;9.588;2022-11-15T07:12:01;10.40;99.90
18406;DHT22;9329;48.720;9.588;2022-11-15T07:14:46;10.50;99.90
18406;DHT22;9329;48.720;9.588;2022-11-15T07:17:33;10.40;99.90
18406;DHT22;9329;48.720;9.588;2022-11-15T07:20:19;10.70;99.90
18406;DHT22;9329;48.720;9.588;2022-11-15T07:23:05;10.70;99.90
18406;DHT22;9329;48.720;9.588;2022-11-15T07:25:50;10.80;99.90
18406;DHT22;9329;48.720;9.588;2022-11-15T07:28:36;10.70;99.90
18406;DHT22;9329;48.720;9.588;2022-11-15T07:31:22;10.30;99.90
18406;DHT22;9329;48.720;9.588;2022-11-15T07:34:09;10.50;99.90
18406;DHT22;9329;48.720;9.588;2022-11-15T07:36:55;10.60;99.90
18406;DHT22;9329;48.720;9.588;2022-11-15T07:39:43;10.60;99.90
18406;DHT22;9329;48.720;9.588;2022-11-15T07:42:31;10.70;99.90
18406;DHT22;9329;48.720;9.588;2022-11-15T07:45:39;10.90;99.90
18406;DHT22;9329;48.720;9.588;2022-11-15T07:48:25;11.10;99.90
18406;DHT22;9329;48.720;9.588;2022-11-15T07:51:13;11.50;99.90
18406;DHT22;9329;48.720;9.588;2022-11-15T07:53:59;11.50;99.90
18406;DHT22;9329;48.720;9.588;2022-11-15T07:56:45;11.80;99.90
18406;DHT22;9329;48.720;9.588;2022-11-15T07:59:30;11.70;99.90
18406;DHT22;9329;48.720;9.588;2022-11-15T08:02:15;11.80;99.90
18406;DHT22;9329;48.720;9.588;2022-11-15T08:05:02;11.90;99.90
18406;DHT22;9329;48.720;9.588;2022-11-15T08:07:49;12.10;99.90
18406;DHT22;9329;48.720;9.588;2022-11-15T08:10:35;12.30;99.90
18406;DHT22;9329;48.720;9.588;2022-11-15T08:13:21;12.40;99.90
18406;DHT22;9329;48.720;9.588;2022-11-15T08:16:07;12.70;99.90
18406;DHT22;9329;48.720;9.588;2022-11-15T08:18:53;12.70;99.90
18406;DHT22;9329;48.720;9.588;2022-11-15T08:21:38;12.70;99.90
18406;DHT22;9329;48.720;9.588;2022-11-15T08:24:26;13.00;99.90
18406;DHT22;9329;48.720;9.588;2022-11-15T08:27:11;13.20;99.90
18406;DHT22;9329;48.720;9.588;2022-11-15T08:29:59;13.20;99.90
18406;DHT22;9329;48.720;9.588;2022-11-15T08:32:46;13.00;99.90
18406;DHT22;9329;48.720;9.588;2022-11-15T08:35:31;13.10;99.90
18406;DHT22;9329;48.720;9.588;2022-11-15T08:38:17;13.50;99.90
18406;DHT22;9329;48.720;9.588;2022-11-15T08:41:04;13.90;99.90
18406;DHT22;9329;48.720;9.588;2022-11-15T08:43:50;14.20;99.90
18406;DHT22;9329;48.720;9.588;2022-11-15T08:46:35;14.60;99.90
18406;DHT22;9329;48.720;9.588;2022-11-15T08:49:21;14.30;99.90
18406;DHT22;9329;48.720;9.588;2022-11-15T08:52:07;14.60;99.90
18406;DHT22;9329;48.720;9.588;2022-11-15T08:54:52;14.70;99.90
18406;DHT22;9329;48.720;9.588;2022-11-15T08:57:39;15.00;99.90
18406;DHT22;9329;48.720;9.588;2022-11-15T09:00:25;15.10;99.90
18406;DHT22;9329;48.720;9.588;2022-11-15T09:03:11;15.40;99.90
18406;DHT22;9329;48.720;9.588;2022-11-15T09:05:57;15.70;99.90
18406;DHT22;9329;48.720;9.588;2022-11-15T09:08:43;15.20;99.90
18406;DHT22;9329;48.720;9.588;2022-11-15T09:11:29;14.90;99.90
18406;DHT22;9329;48.720;9.588;2022-11-15T09:14:15;15.00;99.90
18406;DHT22;9329;48.720;9.588;2022-11-15T09:17:01;15.30;99.90
18406;DHT22;9329;48.720;9.588;2022-11-15T09:19:47;15.20;99.90
18406;DHT22;9329;48.720;9.588;2022-11-15T09:22:32;15.00;99.90
18406;DHT22;9329;48.720;9.588;2022-11-15T09:25:18;14.60;99.90
18406;DHT22;9329;48.720;9.588;2022-11-15T09:28:06;14.60;99.90
18406;DHT22;9329;48.720;9.588;2022-11-15T09:30:56;14.90;99.90
18406;DHT22;9329;48.720;9.588;2022-11-15T09:33:43;15.30;99.90
18406;DHT22;9329;48.720;9.588;2022-11-15T09:36:30;14.80;99.90
18406;DHT22;9329;48.720;9.588;2022-11-15T09:39:15;15.10;99.90
18406;DHT22;9329;48.720;9.588;2022-11-15T09:42:20;14.90;99.90
18406;DHT22;9329;48.720;9.588;2022-11-15T09:45:17;15.00;99.90
18406;DHT22;9329;48.720;9.588;2022-11-15T09:48:26;16.00;99.90
18406;DHT22;9329;48.720;9.588;2022-11-15T09:51:28;16.60;99.90
18406;DHT22;9329;48.720;9.588;2022-11-15T09:54:04;15.50;99.90
18406;DHT22;9329;48.720;9.588;2022-11-15T09:56:35;15.80;99.90
18406;DHT22;9329;48.720;9.588;2022-11-15T09:59:22;16.20;99.90
18406;DHT22;9329;48.720;9.588;2022-11-15T10:01:58;15.80;99.90
18406;DHT22;9329;48.720;9.588;2022-11-15T10:04:29;15.90;99.90
18406;DHT22;9329;48.720;9.588;2022-11-15T10:07:01;16.10;99.90
18406;DHT22;9329;48.720;9.588;2022-11-15T10:09:34;15.70;99.90
18406;DHT22;9329;48.720;9.588;2022-11-15T10:12:03;15.30;99.90
18406;DHT22;9329;48.720;9.588;2022-11-15T10:14:31;15.10;99.90
18406;DHT22;9329;48.720;9.588;2022-11-15T10:17:33;15.20;99.90
18406;DHT22;9329;48.720;9.588;2022-11-15T10:20:12;15.80;99.90
18406;DHT22;9329;48.720;9.588;2022-11-15T10:22:46;15.20;99.90
18406;DHT22;9329;48.720;9.588;2022-11-15T10:25:20;15.50;99.90
18406;DHT22;9329;48.720;9.588;2022-11-15T10:27:56;15.90;99.90
18406;DHT22;9329;48.720;9.588;2022-11-15T10:30:32;16.30;99.90
18406;DHT22;9329;48.720;9.588;2022-11-15T10:33:13;16.40;99.90
18406;DHT22;9329;48.720;9.588;2022-11-15T10:35:44;16.20;99.90
18406;DHT22;9329;48.720;9.588;2022-11-15T10:38:12;16.80;99.90
18406;DHT22;9329;48.720;9.588;2022-11-15T10:40:40;17.10;99.90
18406;DHT22;9329;48.720;9.588;2022-11-15T10:43:17;17.20;99.90
18406;DHT22;9329;48.720;9.588;2022-11-15T10:45:46;17.00;99.90
18406;DHT22;9329;48.720;9.588;2022-11-15T10:48:25;16.70;99.90
18406;DHT22;9329;48.720;9.588;2022-11-15T10:50:54;16.80;99.90
18406;DHT22;9329;48.720;9.588;2022-11-15T10:53:29;17.10;99.90
18406;DHT22;9329;48.720;9.588;2022-11-15T10:56:03;17.60;99.90
18406;DHT22;9329;48.720;9.588;2022-11-15T10:58:34;17.30;99.90
18406;DHT22;9329;48.720;9.588;2022-11-15T11:01:13;17.60;99.90
18406;DHT22;9329;48.720;9.588;2022-11-15T11:03:43;17.80;99.90
18406;DHT22;9329;48.720;9.588;2022-11-15T11:06:14;18.30;99.90
18406;DHT22;9329;48.720;9.588;2022-11-15T11:08:55;18.40;99.90
18406;DHT22;9329;48.720;9.588;2022-11-15T11:11:23;18.00;99.90
18406;DHT22;9329;48.720;9.588;2022-11-15T11:13:50;17.90;99.90
18406;DHT22;9329;48.720;9.588;2022-11-15T11:16:41;18.00;99.90
18406;DHT22;9329;48.720;9.588;2022-11-15T11:22:12;18.20;99.90
18406;DHT22;9329;48.720;9.588;2022-11-15T11:24:44;17.90;99.90
18406;DHT22;9329;48.720;9.588;2022-11-15T11:27:26;18.50;99.90
18406;DHT22;9329;48.720;9.588;2022-11-15T11:30:04;19.40;99.90
18406;DHT22;9329;48.720;9.588;2022-11-15T11:32:53;19.30;99.90
18406;DHT22;9329;48.720;9.588;2022-11-15T11:35:26;19.40;99.90
18406;DHT22;9329;48.720;9.588;2022-11-15T11:38:05;19.60;99.90
18406;DHT22;9329;48.720;9.588;2022-11-15T11:40:43;19.70;99.90
18406;DHT22;9329;48.720;9.588;2022-11-15T11:43:20;18.80;99.90
18406;DHT22;9329;48.720;9.588;2022-11-15T11:46:03;18.30;99.90
18406;DHT22;9329;48.720;9.588;2022-11-15T11:48:41;18.60;99.90
18406;DHT22;9329;48.720;9.588;2022-11-15T11:51:14;19.60;99.90
18406;DHT22;9329;48.720;9.588;2022-11-15T11:53:48;19.20;99.90
18406;DHT22;9329;48.720;9.588;2022-11-15T11:56:23;19.40;99.90
18406;DHT22;9329;48.720;9.588;2022-11-15T11:58:53;19.60;99.90
18406;DHT22;9329;48.720;9.588;2022-11-15T12:01:23;19.50;99.90
18406;DHT22;9329;48.720;9.588;2022-11-15T12:03:57;19.10;99.90
18406;DHT22;9329;48.720;9.588;2022-11-15T12:06:31;18.90;99.90
18406;DHT22;9329;48.720;9.588;2022-11-15T12:09:04;19.40;99.90
18406;DHT22;9329;48.720;9.588;2022-11-15T12:11:41;19.20;99.90
18406;DHT22;9329;48.720;9.588;2022-11-15T12:14:26;19.70;99.90
18406;DHT22;9329;48.720;9.588;2022-11-15T12:16:54;20.30;99.90
18406;DHT22;9329;48.720;9.588;2022-11-15T12:19:21;20.20;99.90
18406;DHT22;9329;48.720;9.588;2022-11-15T12:21:53;20.30;99.90
18406;DHT22;9329;48.720;9.588;2022-11-15T12:24:26;20.40;99.90
18406;DHT22;9329;48.720;9.588;2022-11-15T12:26:58;20.50;99.90
18406;DHT22;9329;48.720;9.588;2022-11-15T12:29:31;19.70;99.90
18406;DHT22;9329;48.720;9.588;2022-11-15T12:32:00;19.50;99.90
18406;DHT22;9329;48.720;9.588;2022-11-15T12:34:37;19.60;99.90
18406;DHT22;9329;48.720;9.588;2022-11-15T12:40:27;19.80;99.90
18406;DHT22;9329;48.720;9.588;2022-11-15T12:46:03;20.20;99.90
18406;DHT22;9329;48.720;9.588;2022-11-15T12:48:53;20.10;99.90
18406;DHT22;9329;48.720;9.588;2022-11-15T12:54:56;19.60;99.90
18406;DHT22;9329;48.720;9.588;2022-11-15T12:57:33;19.10;99.90
18406;DHT22;9329;48.720;9.588;2022-11-15T13:03:21;19.30;99.90
18406;DHT22;9329;48.720;9.588;2022-11-15T13:06:06;19.30;99.90
18406;DHT22;9329;48.720;9.588;2022-11-15T13:08:46;19.00;99.90
18406;DHT22;9329;48.720;9.588;2022-11-15T13:11:42;18.30;99.90
18406;DHT22;9329;48.720;9.588;2022-11-15T13:14:44;18.00;99.90
18406;DHT22;9329;48.720;9.588;2022-11-15T13:17:30;17.70;99.90
18406;DHT22;9329;48.720;9.588;2022-11-15T13:20:25;18.10;99.90
18406;DHT22;9329;48.720;9.588;2022-11-15T13:23:08;17.80;99.90
18406;DHT22;9329;48.720;9.588;2022-11-15T13:26:10;17.80;99.90
18406;DHT22;9329;48.720;9.588;2022-11-15T13:28:42;18.10;99.90
18406;DHT22;9329;48.720;9.588;2022-11-15T13:31:26;18.90;99.90
18406;DHT22;9329;48.720;9.588;2022-11-15T13:33:57;18.90;99.90
18406;DHT22;9329;48.720;9.588;2022-11-15T13:36:31;18.80;99.90
18406;DHT22;9329;48.720;9.588;2022-11-15T13:39:04;18.10;99.90
18406;DHT22;9329;48.720;9.588;2022-11-15T13:41:33;18.10;99.90
18406;DHT22;9329;48.720;9.588;2022-11-15T13:44:19;18.60;99.90
18406;DHT22;9329;48.720;9.588;2022-11-15T13:46:48;19.30;99.90
18406;DHT22;9329;48.720;9.588;2022-11-15T13:49:15;19.90;99.90
18406;DHT22;9329;48.720;9.588;2022-11-15T13:51:48;19.50;99.90
18406;DHT22;9329;48.720;9.588;2022-11-15T13:54:20;19.70;99.90
18406;DHT22;9329;48.720;9.588;2022-11-15T13:56:49;19.50;99.90
18406;DHT22;9329;48.720;9.588;2022-11-15T13:59:24;18.80;99.90
18406;DHT22;9329;48.720;9.588;2022-11-15T14:01:54;19.00;99.90
18406;DHT22;9329;48.720;9.588;2022-11-15T14:04:23;19.00;99.90
18406;DHT22;9329;48.720;9.588;2022-11-15T14:06:53;19.00;99.90
18406;DHT22;9329;48.720;9.588;2022-11-15T14:09:31;19.10;99.90
18406;DHT22;9329;48.720;9.588;2022-11-15T14:12:00;19.20;99.90
18406;DHT22;9329;48.720;9.588;2022-11-15T14:14:28;19.00;99.90
18406;DHT22;9329;48.720;9.588;2022-11-15T14:16:58;18.80;99.90
18406;DHT22;9329;48.720;9.588;2022-11-15T14:19:39;19.10;99.90
18406;DHT22;9329;48.720;9.588;2022-11-15T14:22:16;19.10;99.90
18406;DHT22;9329;48.720;9.588;2022-11-15T14:24:45;19.10;99.90
18406;DHT22;9329;48.720;9.588;2022-11-15T14:27:17;18.80;99.90
18406;DHT22;9329;48.720;9.588;2022-11-15T14:29:44;18.10;99.90
18406;DHT22;9329;48.720;9.588;2022-11-15T14:32:15;18.40;99.90
18406;DHT22;9329;48.720;9.588;2022-11-15T14:34:44;18.40;99.90
18406;DHT22;9329;48.720;9.588;2022-11-15T14:37:20;18.30;99.90
18406;DHT22;9329;48.720;9.588;2022-11-15T14:39:48;18.50;99.90
18406;DHT22;9329;48.720;9.588;2022-11-15T14:42:15;18.00;99.90
18406;DHT22;9329;48.720;9.588;2022-11-15T14:44:43;17.60;99.90
18406;DHT22;9329;48.720;9.588;2022-11-15T14:47:10;17.60;99.90
18406;DHT22;9329;48.720;9.588;2022-11-15T14:49:38;17.30;99.90
18406;DHT22;9329;48.720;9.588;2022-11-15T14:52:18;17.40;99.90
18406;DHT22;9329;48.720;9.588;2022-11-15T14:54:52;17.20;99.90
18406;DHT22;9329;48.720;9.588;2022-11-15T14:57:19;17.20;99.90
18406;DHT22;9329;48.720;9.588;2022-11-15T14:59:46;17.10;99.90
18406;DHT22;9329;48.720;9.588;2022-11-15T15:02:18;16.90;99.90
18406;DHT22;9329;48.720;9.588;2022-11-15T15:04:47;16.80;99.90
18406;DHT22;9329;48.720;9.588;2022-11-15T15:07:14;16.90;99.90
18406;DHT22;9329;48.720;9.588;2022-11-15T15:09:42;16.90;99.90
18406;DHT22;9329;48.720;9.588;2022-11-15T15:12:17;16.80;99.90
18406;DHT22;9329;48.720;9.588;2022-11-15T15:14:45;16.80;99.90
18406;DHT22;9329;48.720;9.588;2022-11-15T15:17:12;16.60;99.90
18406;DHT22;9329;48.720;9.588;2022-11-15T15:19:39;16.50;99.90
18406;DHT22;9329;48.720;9.588;2022-11-15T15:22:12;16.40;99.90
18406;DHT22;9329;48.720;9.588;2022-11-15T15:24:41;16.50;99.90
18406;DHT22;9329;48.720;9.588;2022-11-15T15:27:08;16.70;99.90
18406;DHT22;9329;48.720;9.588;2022-11-15T15:29:35;16.60;99.90
18406;DHT22;9329;48.720;9.588;2022-11-15T15:32:02;16.30;99.90
18406;DHT22;9329;48.720;9.588;2022-11-15T15:34:30;16.30;99.90
18406;DHT22;9329;48.720;9.588;2022-11-15T15:37:21;16.50;99.90
18406;DHT22;9329;48.720;9.588;2022-11-15T15:39:50;16.50;99.90
18406;DHT22;9329;48.720;9.588;2022-11-15T15:42:21;16.50;99.90
18406;DHT22;9329;48.720;9.588;2022-11-15T15:44:49;16.50;99.90
18406;DHT22;9329;48.720;9.588;2022-11-15T15:47:19;16.30;99.90
18406;DHT22;9329;48.720;9.588;2022-11-15T15:49:46;16.40;99.90
18406;DHT22;9329;48.720;9.588;2022-11-15T15:52:15;16.40;99.90
18406;DHT22;9329;48.720;9.588;2022-11-15T15:54:42;16.20;99.90
18406;DHT22;9329;48.720;9.588;2022-11-15T15:57:12;15.90;99.90
18406;DHT22;9329;48.720;9.588;2022-11-15T15:59:40;15.80;99.90
18406;DHT22;9329;48.720;9.588;2022-11-15T16:02:09;15.60;99.90
18406;DHT22;9329;48.720;9.588;2022-11-15T16:04:38;15.50;99.90
18406;DHT22;9329;48.720;9.588;2022-11-15T16:07:08;15.60;99.90
18406;DHT22;9329;48.720;9.588;2022-11-15T16:09:43;15.40;99.90
18406;DHT22;9329;48.720;9.588;2022-11-15T16:12:29;15.30;99.90
18406;DHT22;9329;48.720;9.588;2022-11-15T16:14:57;15.20;99.90
18406;DHT22;9329;48.720;9.588;2022-11-15T16:17:26;15.10;99.90
18406;DHT22;9329;48.720;9.588;2022-11-15T16:19:53;15.00;99.90
18406;DHT22;9329;48.720;9.588;2022-11-15T16:22:20;15.20;99.90
18406;DHT22;9329;48.720;9.588;2022-11-15T16:24:49;15.00;99.90
18406;DHT22;9329;48.720;9.588;2022-11-15T16:27:17;14.80;99.90
18406;DHT22;9329;48.720;9.588;2022-11-15T16:29:45;15.10;99.90
18406;DHT22;9329;48.720;9.588;2022-11-15T16:32:13;15.10;99.90
18406;DHT22;9329;48.720;9.588;2022-11-15T16:34:40;15.10;99.90
18406;DHT22;9329;48.720;9.588;2022-11-15T16:37:21;15.00;99.90
18406;DHT22;9329;48.720;9.588;2022-11-15T16:39:49;15.10;99.90
18406;DHT22;9329;48.720;9.588;2022-11-15T16:42:16;14.80;99.90
18406;DHT22;9329;48.720;9.588;2022-11-15T16:44:43;14.50;99.90
18406;DHT22;9329;48.720;9.588;2022-11-15T16:47:16;14.40;99.90
18406;DHT22;9329;48.720;9.588;2022-11-15T16:49:44;14.30;99.90
18406;DHT22;9329;48.720;9.588;2022-11-15T16:52:11;14.30;99.90
18406;DHT22;9329;48.720;9.588;2022-11-15T16:54:38;14.40;99.90
18406;DHT22;9329;48.720;9.588;2022-11-15T16:57:07;14.20;99.90
18406;DHT22;9329;48.720;9.588;2022-11-15T16:59:35;13.90;99.90
18406;DHT22;9329;48.720;9.588;2022-11-15T17:02:02;14.00;99.90
18406;DHT22;9329;48.720;9.588;2022-11-15T17:04:29;13.90;99.90
18406;DHT22;9329;48.720;9.588;2022-11-15T17:06:58;13.80;99.90
18406;DHT22;9329;48.720;9.588;2022-11-15T17:09:26;14.00;99.90
18406;DHT22;9329;48.720;9.588;2022-11-15T17:11:53;14.00;99.90
18406;DHT22;9329;48.720;9.588;2022-11-15T17:14:21;13.80;99.90
18406;DHT22;9329;48.720;9.588;2022-11-15T17:16:48;13.80;99.90
18406;DHT22;9329;48.720;9.588;2022-11-15T17:19:17;13.60;99.90
18406;DHT22;9329;48.720;9.588;2022-11-15T17:21:46;13.50;99.90
18406;DHT22;9329;48.720;9.588;2022-11-15T17:24:14;13.50;99.90
18406;DHT22;9329;48.720;9.588;2022-11-15T17:26:42;13.60;99.90
18406;DHT22;9329;48.720;9.588;2022-11-15T17:29:09;13.40;99.90
18406;DHT22;9329;48.720;9.588;2022-11-15T17:31:37;13.20;99.90
18406;DHT22;9329;48.720;9.588;2022-11-15T17:34:05;13.30;99.90
18406;DHT22;9329;48.720;9.588;2022-11-15T17:36:33;13.50;99.90
18406;DHT22;9329;48.720;9.588;2022-11-15T17:39:01;13.50;99.90